sensor_id;sensor_type;location;lat;lon;timestamp;P1;durP1;ratioP1;P2;durP2;ratioP2
61471;SDS011;47337;54.068;12.114;2023-02-07T00:00:49;20.80;;;10.52;;
61471;SDS011;47337;54.068;12.114;2023-02-07T00:03:15;24.65;;;10.40;;
61471;SDS011;47337;54.068;12.114;2023-02-07T00:05:42;27.75;;;11.82;;
61471;SDS011;47337;54.068;12.114;2023-02-07T00:08:07;23.00;;;11.68;;
61471;SDS011;47337;54.068;12.114;2023-02-07T00:10:33;23.88;;;10.77;;
61471;SDS011;47337;54.068;12.114;2023-02-07T00:12:59;23.33;;;11.75;;
61471;SDS011;47337;54.068;12.114;2023-02-07T00:15:25;22.75;;;11.48;;
61471;SDS011;47337;54.068;12.114;2023-02-07T00:17:51;23.67;;;11.02;;
61471;SDS011;47337;54.068;12.114;2023-02-07T00:20:17;23.83;;;11.02;;
61471;SDS011;47337;54.068;12.114;2023-02-07T00:22:49;21.30;;;10.90;;
61471;SDS011;47337;54.068;12.114;2023-02-07T00:25:17;19.33;;;10.52;;
61471;SDS011;47337;54.068;12.114;2023-02-07T00:27:42;22.58;;;11.07;;
61471;SDS011;47337;54.068;12.114;2023-02-07T00:30:08;20.25;;;10.48;;
61471;SDS011;47337;54.068;12.114;2023-02-07T00:32:33;23.92;;;10.85;;
61471;SDS011;47337;54.068;12.114;2023-02-07T00:34:59;26.67;;;11.88;;
61471;SDS011;47337;54.068;12.114;2023-02-07T00:37:28;25.95;;;11.57;;
61471;SDS011;47337;54.068;12.114;2023-02-07T00:39:55;26.23;;;11.45;;
61471;SDS011;47337;54.068;12.114;2023-02-07T00:42:21;26.10;;;11.18;;
61471;SDS011;47337;54.068;12.114;2023-02-07T00:44:49;25.23;;;12.02;;
61471;SDS011;47337;54.068;12.114;2023-02-07T00:47:14;30.65;;;13.48;;
61471;SDS011;47337;54.068;12.114;2023-02-07T00:49:40;19.58;;;11.25;;
61471;SDS011;47337;54.068;12.114;2023-02-07T00:52:06;30.25;;;12.00;;
61471;SDS011;47337;54.068;12.114;2023-02-07T00:54:32;22.20;;;11.10;;
61471;SDS011;47337;54.068;12.114;2023-02-07T00:56:57;24.25;;;12.50;;
61471;SDS011;47337;54.068;12.114;2023-02-07T00:59:22;22.27;;;11.45;;
61471;SDS011;47337;54.068;12.114;2023-02-07T01:01:48;29.17;;;12.68;;
61471;SDS011;47337;54.068;12.114;2023-02-07T01:04:13;26.30;;;11.48;;
61471;SDS011;47337;54.068;12.114;2023-02-07T01:06:39;23.15;;;11.38;;
61471;SDS011;47337;54.068;12.114;2023-02-07T01:09:04;22.77;;;11.52;;
61471;SDS011;47337;54.068;12.114;2023-02-07T01:11:35;25.80;;;10.98;;
61471;SDS011;47337;54.068;12.114;2023-02-07T01:14:00;25.63;;;12.60;;
61471;SDS011;47337;54.068;12.114;2023-02-07T01:16:28;25.52;;;11.98;;
61471;SDS011;47337;54.068;12.114;2023-02-07T01:18:55;23.90;;;11.73;;
61471;SDS011;47337;54.068;12.114;2023-02-07T01:21:25;25.67;;;11.95;;
61471;SDS011;47337;54.068;12.114;2023-02-07T01:23:52;20.98;;;10.68;;
61471;SDS011;47337;54.068;12.114;2023-02-07T01:26:23;22.15;;;11.32;;
61471;SDS011;47337;54.068;12.114;2023-02-07T01:28:49;22.85;;;10.98;;
61471;SDS011;47337;54.068;12.114;2023-02-07T01:31:14;24.48;;;11.25;;
61471;SDS011;47337;54.068;12.114;2023-02-07T01:33:40;23.73;;;11.15;;
61471;SDS011;47337;54.068;12.114;2023-02-07T01:36:10;24.65;;;10.77;;
61471;SDS011;47337;54.068;12.114;2023-02-07T01:38:38;20.02;;;10.75;;
61471;SDS011;47337;54.068;12.114;2023-02-07T01:41:04;26.13;;;12.43;;
61471;SDS011;47337;54.068;12.114;2023-02-07T01:43:30;20.83;;;11.32;;
61471;SDS011;47337;54.068;12.114;2023-02-07T01:45:57;24.02;;;11.18;;
61471;SDS011;47337;54.068;12.114;2023-02-07T01:48:27;22.15;;;10.93;;
61471;SDS011;47337;54.068;12.114;2023-02-07T01:51:02;22.38;;;11.55;;
61471;SDS011;47337;54.068;12.114;2023-02-07T01:53:30;28.45;;;11.93;;
61471;SDS011;47337;54.068;12.114;2023-02-07T01:56:00;23.00;;;10.55;;
61471;SDS011;47337;54.068;12.114;2023-02-07T01:58:31;23.65;;;10.95;;
61471;SDS011;47337;54.068;12.114;2023-02-07T02:00:57;25.42;;;11.13;;
61471;SDS011;47337;54.068;12.114;2023-02-07T02:03:25;27.90;;;12.13;;
61471;SDS011;47337;54.068;12.114;2023-02-07T02:05:53;21.30;;;10.18;;
61471;SDS011;47337;54.068;12.114;2023-02-07T02:08:22;25.50;;;11.65;;
61471;SDS011;47337;54.068;12.114;2023-02-07T02:13:30;25.00;;;11.20;;
61471;SDS011;47337;54.068;12.114;2023-02-07T02:41:53;27.98;;;11.48;;
61471;SDS011;47337;54.068;12.114;2023-02-07T02:44:07;29.08;;;12.32;;
61471;SDS011;47337;54.068;12.114;2023-02-07T02:46:40;28.83;;;12.15;;
61471;SDS011;47337;54.068;12.114;2023-02-07T02:49:09;26.58;;;11.85;;
61471;SDS011;47337;54.068;12.114;2023-02-07T02:51:37;32.42;;;13.05;;
61471;SDS011;47337;54.068;12.114;2023-02-07T02:54:03;28.83;;;12.35;;
61471;SDS011;47337;54.068;12.114;2023-02-07T03:10:38;31.08;;;13.10;;
61471;SDS011;47337;54.068;12.114;2023-02-07T03:21:46;39.92;;;14.48;;
61471;SDS011;47337;54.068;12.114;2023-02-07T03:24:33;33.78;;;14.05;;
61471;SDS011;47337;54.068;12.114;2023-02-07T03:27:04;32.25;;;14.45;;
61471;SDS011;47337;54.068;12.114;2023-02-07T03:29:32;34.40;;;14.45;;
61471;SDS011;47337;54.068;12.114;2023-02-07T03:32:01;36.58;;;15.48;;
61471;SDS011;47337;54.068;12.114;2023-02-07T03:37:02;32.42;;;13.77;;
61471;SDS011;47337;54.068;12.114;2023-02-07T03:39:38;32.05;;;13.60;;
61471;SDS011;47337;54.068;12.114;2023-02-07T03:42:06;35.90;;;15.43;;
61471;SDS011;47337;54.068;12.114;2023-02-07T03:44:35;34.30;;;14.52;;
61471;SDS011;47337;54.068;12.114;2023-02-07T03:47:06;28.80;;;13.90;;
61471;SDS011;47337;54.068;12.114;2023-02-07T03:49:31;32.22;;;14.73;;
61471;SDS011;47337;54.068;12.114;2023-02-07T03:51:57;34.65;;;14.15;;
61471;SDS011;47337;54.068;12.114;2023-02-07T03:54:22;24.02;;;12.27;;
61471;SDS011;47337;54.068;12.114;2023-02-07T03:56:47;36.03;;;14.27;;
61471;SDS011;47337;54.068;12.114;2023-02-07T03:59:13;31.20;;;13.88;;
61471;SDS011;47337;54.068;12.114;2023-02-07T04:01:38;25.48;;;12.48;;
61471;SDS011;47337;54.068;12.114;2023-02-07T04:04:09;31.85;;;13.45;;
61471;SDS011;47337;54.068;12.114;2023-02-07T04:06:35;32.05;;;14.00;;
61471;SDS011;47337;54.068;12.114;2023-02-07T04:09:01;37.92;;;15.00;;
61471;SDS011;47337;54.068;12.114;2023-02-07T04:11:27;29.83;;;13.25;;
61471;SDS011;47337;54.068;12.114;2023-02-07T04:13:56;35.33;;;14.05;;
61471;SDS011;47337;54.068;12.114;2023-02-07T04:16:24;30.58;;;12.93;;
61471;SDS011;47337;54.068;12.114;2023-02-07T04:18:49;31.10;;;13.63;;
61471;SDS011;47337;54.068;12.114;2023-02-07T04:21:14;34.38;;;13.02;;
61471;SDS011;47337;54.068;12.114;2023-02-07T04:23:40;29.23;;;12.43;;
61471;SDS011;47337;54.068;12.114;2023-02-07T04:26:05;30.05;;;12.98;;
61471;SDS011;47337;54.068;12.114;2023-02-07T04:28:33;33.85;;;13.10;;
61471;SDS011;47337;54.068;12.114;2023-02-07T04:30:58;31.02;;;12.73;;
61471;SDS011;47337;54.068;12.114;2023-02-07T04:33:24;31.77;;;13.45;;
61471;SDS011;47337;54.068;12.114;2023-02-07T04:35:55;32.63;;;12.93;;
61471;SDS011;47337;54.068;12.114;2023-02-07T04:38:23;33.33;;;14.40;;
61471;SDS011;47337;54.068;12.114;2023-02-07T04:40:49;31.88;;;13.52;;
61471;SDS011;47337;54.068;12.114;2023-02-07T04:43:17;32.95;;;13.25;;
61471;SDS011;47337;54.068;12.114;2023-02-07T04:45:46;30.98;;;12.80;;
61471;SDS011;47337;54.068;12.114;2023-02-07T04:48:12;33.25;;;12.20;;
61471;SDS011;47337;54.068;12.114;2023-02-07T04:50:40;33.58;;;13.63;;
61471;SDS011;47337;54.068;12.114;2023-02-07T04:53:08;29.55;;;13.98;;
61471;SDS011;47337;54.068;12.114;2023-02-07T04:55:33;32.17;;;14.23;;
61471;SDS011;47337;54.068;12.114;2023-02-07T04:58:01;30.40;;;13.32;;
61471;SDS011;47337;54.068;12.114;2023-02-07T05:00:32;32.22;;;12.73;;
61471;SDS011;47337;54.068;12.114;2023-02-07T05:03:00;30.30;;;13.35;;
61471;SDS011;47337;54.068;12.114;2023-02-07T05:05:28;32.97;;;13.10;;
61471;SDS011;47337;54.068;12.114;2023-02-07T05:07:56;27.77;;;12.10;;
61471;SDS011;47337;54.068;12.114;2023-02-07T05:10:23;29.58;;;12.57;;
61471;SDS011;47337;54.068;12.114;2023-02-07T05:12:51;29.65;;;13.15;;
61471;SDS011;47337;54.068;12.114;2023-02-07T05:15:19;33.88;;;14.25;;
61471;SDS011;47337;54.068;12.114;2023-02-07T05:17:47;33.17;;;13.98;;
61471;SDS011;47337;54.068;12.114;2023-02-07T05:20:16;29.25;;;13.38;;
61471;SDS011;47337;54.068;12.114;2023-02-07T05:22:42;32.35;;;13.10;;
61471;SDS011;47337;54.068;12.114;2023-02-07T05:25:07;31.50;;;12.15;;
61471;SDS011;47337;54.068;12.114;2023-02-07T05:27:35;35.45;;;14.60;;
61471;SDS011;47337;54.068;12.114;2023-02-07T05:30:01;30.70;;;12.00;;
61471;SDS011;47337;54.068;12.114;2023-02-07T05:32:27;31.10;;;12.55;;
61471;SDS011;47337;54.068;12.114;2023-02-07T05:35:11;29.83;;;13.15;;
61471;SDS011;47337;54.068;12.114;2023-02-07T05:37:36;36.25;;;13.98;;
61471;SDS011;47337;54.068;12.114;2023-02-07T05:40:04;30.80;;;13.93;;
61471;SDS011;47337;54.068;12.114;2023-02-07T05:42:32;32.85;;;14.85;;
61471;SDS011;47337;54.068;12.114;2023-02-07T05:44:58;34.58;;;13.40;;
61471;SDS011;47337;54.068;12.114;2023-02-07T05:47:23;36.92;;;15.57;;
61471;SDS011;47337;54.068;12.114;2023-02-07T05:49:49;33.00;;;12.77;;
61471;SDS011;47337;54.068;12.114;2023-02-07T05:52:14;33.67;;;15.07;;
61471;SDS011;47337;54.068;12.114;2023-02-07T05:54:40;33.35;;;13.80;;
61471;SDS011;47337;54.068;12.114;2023-02-07T05:57:05;33.03;;;12.55;;
61471;SDS011;47337;54.068;12.114;2023-02-07T05:59:31;35.35;;;14.13;;
61471;SDS011;47337;54.068;12.114;2023-02-07T06:01:58;30.83;;;12.90;;
61471;SDS011;47337;54.068;12.114;2023-02-07T06:04:24;34.45;;;13.35;;
61471;SDS011;47337;54.068;12.114;2023-02-07T06:06:49;31.55;;;13.57;;
61471;SDS011;47337;54.068;12.114;2023-02-07T06:09:15;30.70;;;13.25;;
61471;SDS011;47337;54.068;12.114;2023-02-07T06:11:40;34.78;;;14.05;;
61471;SDS011;47337;54.068;12.114;2023-02-07T06:14:08;38.15;;;13.98;;
61471;SDS011;47337;54.068;12.114;2023-02-07T06:16:34;30.23;;;13.07;;
61471;SDS011;47337;54.068;12.114;2023-02-07T06:18:59;32.45;;;13.85;;
61471;SDS011;47337;54.068;12.114;2023-02-07T06:21:25;33.05;;;14.38;;
61471;SDS011;47337;54.068;12.114;2023-02-07T06:23:50;33.17;;;13.48;;
61471;SDS011;47337;54.068;12.114;2023-02-07T06:26:16;30.90;;;13.68;;
61471;SDS011;47337;54.068;12.114;2023-02-07T06:28:41;30.75;;;13.10;;
61471;SDS011;47337;54.068;12.114;2023-02-07T06:31:07;34.20;;;13.75;;
61471;SDS011;47337;54.068;12.114;2023-02-07T06:33:32;33.13;;;13.43;;
61471;SDS011;47337;54.068;12.114;2023-02-07T06:35:58;32.20;;;13.23;;
61471;SDS011;47337;54.068;12.114;2023-02-07T06:38:23;34.58;;;13.45;;
61471;SDS011;47337;54.068;12.114;2023-02-07T06:40:51;31.65;;;13.63;;
61471;SDS011;47337;54.068;12.114;2023-02-07T06:43:17;26.58;;;12.40;;
61471;SDS011;47337;54.068;12.114;2023-02-07T06:45:42;42.10;;;14.80;;
61471;SDS011;47337;54.068;12.114;2023-02-07T06:48:08;32.15;;;13.52;;
61471;SDS011;47337;54.068;12.114;2023-02-07T06:50:34;31.08;;;13.82;;
61471;SDS011;47337;54.068;12.114;2023-02-07T06:53:02;33.50;;;14.50;;
61471;SDS011;47337;54.068;12.114;2023-02-07T06:55:28;32.17;;;13.82;;
61471;SDS011;47337;54.068;12.114;2023-02-07T06:58:05;31.55;;;13.80;;
61471;SDS011;47337;54.068;12.114;2023-02-07T07:00:33;33.80;;;14.13;;
61471;SDS011;47337;54.068;12.114;2023-02-07T07:02:59;31.80;;;13.50;;
61471;SDS011;47337;54.068;12.114;2023-02-07T07:05:27;33.53;;;14.00;;
61471;SDS011;47337;54.068;12.114;2023-02-07T07:07:53;39.05;;;14.90;;
61471;SDS011;47337;54.068;12.114;2023-02-07T07:10:22;34.42;;;13.18;;
61471;SDS011;47337;54.068;12.114;2023-02-07T07:12:50;28.83;;;12.68;;
61471;SDS011;47337;54.068;12.114;2023-02-07T07:15:15;35.83;;;14.30;;
61471;SDS011;47337;54.068;12.114;2023-02-07T07:17:45;40.60;;;14.85;;
61471;SDS011;47337;54.068;12.114;2023-02-07T07:20:12;34.47;;;13.27;;
61471;SDS011;47337;54.068;12.114;2023-02-07T07:22:40;34.38;;;14.57;;
61471;SDS011;47337;54.068;12.114;2023-02-07T07:25:06;38.38;;;14.48;;
61471;SDS011;47337;54.068;12.114;2023-02-07T07:27:32;36.58;;;15.40;;
61471;SDS011;47337;54.068;12.114;2023-02-07T07:29:57;34.58;;;14.07;;
61471;SDS011;47337;54.068;12.114;2023-02-07T07:32:25;43.35;;;16.05;;
61471;SDS011;47337;54.068;12.114;2023-02-07T07:34:53;38.97;;;15.55;;
61471;SDS011;47337;54.068;12.114;2023-02-07T07:37:19;38.15;;;16.42;;
61471;SDS011;47337;54.068;12.114;2023-02-07T07:39:47;38.10;;;15.13;;
61471;SDS011;47337;54.068;12.114;2023-02-07T07:42:13;41.08;;;15.70;;
61471;SDS011;47337;54.068;12.114;2023-02-07T07:44:41;39.45;;;15.23;;
61471;SDS011;47337;54.068;12.114;2023-02-07T07:47:10;40.20;;;16.80;;
61471;SDS011;47337;54.068;12.114;2023-02-07T07:49:38;39.28;;;16.10;;
61471;SDS011;47337;54.068;12.114;2023-02-07T07:52:03;37.70;;;15.90;;
61471;SDS011;47337;54.068;12.114;2023-02-07T07:54:29;41.35;;;17.10;;
61471;SDS011;47337;54.068;12.114;2023-02-07T07:56:55;41.70;;;17.40;;
61471;SDS011;47337;54.068;12.114;2023-02-07T07:59:20;39.10;;;17.38;;
61471;SDS011;47337;54.068;12.114;2023-02-07T08:01:46;41.65;;;17.30;;
61471;SDS011;47337;54.068;12.114;2023-02-07T08:04:13;43.00;;;17.90;;
61471;SDS011;47337;54.068;12.114;2023-02-07T08:06:42;42.53;;;17.77;;
61471;SDS011;47337;54.068;12.114;2023-02-07T08:09:07;37.33;;;16.45;;
61471;SDS011;47337;54.068;12.114;2023-02-07T08:11:35;38.22;;;17.20;;
61471;SDS011;47337;54.068;12.114;2023-02-07T08:14:01;49.38;;;17.45;;
61471;SDS011;47337;54.068;12.114;2023-02-07T08:16:26;41.25;;;17.90;;
61471;SDS011;47337;54.068;12.114;2023-02-07T08:18:54;40.80;;;17.13;;
61471;SDS011;47337;54.068;12.114;2023-02-07T08:21:19;48.53;;;19.13;;
61471;SDS011;47337;54.068;12.114;2023-02-07T08:23:45;46.78;;;17.20;;
61471;SDS011;47337;54.068;12.114;2023-02-07T08:26:12;41.83;;;16.80;;
61471;SDS011;47337;54.068;12.114;2023-02-07T08:28:38;46.75;;;18.83;;
61471;SDS011;47337;54.068;12.114;2023-02-07T08:31:04;46.83;;;18.20;;
61471;SDS011;47337;54.068;12.114;2023-02-07T08:33:32;41.42;;;17.23;;
61471;SDS011;47337;54.068;12.114;2023-02-07T08:36:00;45.28;;;19.08;;
61471;SDS011;47337;54.068;12.114;2023-02-07T08:38:25;44.58;;;19.38;;
61471;SDS011;47337;54.068;12.114;2023-02-07T08:40:51;47.33;;;19.40;;
61471;SDS011;47337;54.068;12.114;2023-02-07T08:43:16;47.90;;;19.58;;
61471;SDS011;47337;54.068;12.114;2023-02-07T08:45:45;43.95;;;18.67;;
61471;SDS011;47337;54.068;12.114;2023-02-07T08:48:14;44.38;;;18.58;;
61471;SDS011;47337;54.068;12.114;2023-02-07T08:50:40;44.78;;;18.83;;
61471;SDS011;47337;54.068;12.114;2023-02-07T08:53:06;49.58;;;20.15;;
61471;SDS011;47337;54.068;12.114;2023-02-07T08:55:34;43.13;;;18.63;;
61471;SDS011;47337;54.068;12.114;2023-02-07T08:57:59;47.50;;;19.73;;
61471;SDS011;47337;54.068;12.114;2023-02-07T09:00:25;48.25;;;20.88;;
61471;SDS011;47337;54.068;12.114;2023-02-07T09:02:50;42.10;;;18.95;;
61471;SDS011;47337;54.068;12.114;2023-02-07T09:05:18;43.58;;;18.17;;
61471;SDS011;47337;54.068;12.114;2023-02-07T09:07:46;41.05;;;18.55;;
61471;SDS011;47337;54.068;12.114;2023-02-07T09:10:11;39.80;;;18.05;;
61471;SDS011;47337;54.068;12.114;2023-02-07T09:12:36;44.88;;;18.27;;
61471;SDS011;47337;54.068;12.114;2023-02-07T09:15:02;43.30;;;19.40;;
61471;SDS011;47337;54.068;12.114;2023-02-07T09:17:29;48.85;;;18.30;;
61471;SDS011;47337;54.068;12.114;2023-02-07T09:19:55;43.10;;;18.52;;
61471;SDS011;47337;54.068;12.114;2023-02-07T09:22:20;44.55;;;17.77;;
61471;SDS011;47337;54.068;12.114;2023-02-07T09:24:46;43.92;;;19.70;;
61471;SDS011;47337;54.068;12.114;2023-02-07T09:27:13;39.00;;;17.52;;
61471;SDS011;47337;54.068;12.114;2023-02-07T09:29:39;41.88;;;18.70;;
61471;SDS011;47337;54.068;12.114;2023-02-07T09:32:04;45.40;;;19.35;;
61471;SDS011;47337;54.068;12.114;2023-02-07T09:34:31;43.38;;;18.13;;
61471;SDS011;47337;54.068;12.114;2023-02-07T09:36:58;37.97;;;18.33;;
61471;SDS011;47337;54.068;12.114;2023-02-07T09:39:23;35.60;;;17.13;;
61471;SDS011;47337;54.068;12.114;2023-02-07T09:44:25;36.70;;;16.88;;
61471;SDS011;47337;54.068;12.114;2023-02-07T09:47:02;36.70;;;16.13;;
61471;SDS011;47337;54.068;12.114;2023-02-07T09:52:20;43.85;;;15.20;;
61471;SDS011;47337;54.068;12.114;2023-02-07T09:54:51;34.95;;;16.58;;
61471;SDS011;47337;54.068;12.114;2023-02-07T10:00:17;43.40;;;16.27;;
61471;SDS011;47337;54.068;12.114;2023-02-07T10:05:25;31.50;;;14.60;;
61471;SDS011;47337;54.068;12.114;2023-02-07T10:07:58;31.35;;;14.82;;
61471;SDS011;47337;54.068;12.114;2023-02-07T10:10:33;33.28;;;14.13;;
61471;SDS011;47337;54.068;12.114;2023-02-07T10:13:14;34.85;;;15.32;;
61471;SDS011;47337;54.068;12.114;2023-02-07T10:18:39;29.80;;;14.82;;
61471;SDS011;47337;54.068;12.114;2023-02-07T10:21:24;33.78;;;14.63;;
61471;SDS011;47337;54.068;12.114;2023-02-07T10:26:52;29.95;;;13.50;;
61471;SDS011;47337;54.068;12.114;2023-02-07T10:31:58;29.27;;;14.25;;
61471;SDS011;47337;54.068;12.114;2023-02-07T10:34:29;28.73;;;14.25;;
61471;SDS011;47337;54.068;12.114;2023-02-07T10:36:57;32.75;;;13.05;;
61471;SDS011;47337;54.068;12.114;2023-02-07T10:39:26;26.65;;;13.30;;
61471;SDS011;47337;54.068;12.114;2023-02-07T10:41:57;24.88;;;13.00;;
61471;SDS011;47337;54.068;12.114;2023-02-07T10:44:23;26.00;;;12.98;;
61471;SDS011;47337;54.068;12.114;2023-02-07T10:46:52;25.23;;;12.27;;
61471;SDS011;47337;54.068;12.114;2023-02-07T10:49:24;21.55;;;11.00;;
61471;SDS011;47337;54.068;12.114;2023-02-07T10:51:54;23.33;;;12.18;;
61471;SDS011;47337;54.068;12.114;2023-02-07T10:54:48;23.42;;;11.68;;
61471;SDS011;47337;54.068;12.114;2023-02-07T10:57:25;27.15;;;12.55;;
61471;SDS011;47337;54.068;12.114;2023-02-07T11:07:24;23.58;;;12.07;;
61471;SDS011;47337;54.068;12.114;2023-02-07T11:09:50;24.42;;;12.38;;
61471;SDS011;47337;54.068;12.114;2023-02-07T11:12:24;25.52;;;12.13;;
61471;SDS011;47337;54.068;12.114;2023-02-07T11:15:06;24.60;;;13.38;;
61471;SDS011;47337;54.068;12.114;2023-02-07T11:17:44;23.83;;;11.82;;
61471;SDS011;47337;54.068;12.114;2023-02-07T11:23:13;18.83;;;10.82;;
61471;SDS011;47337;54.068;12.114;2023-02-07T11:25:45;21.98;;;10.73;;
61471;SDS011;47337;54.068;12.114;2023-02-07T11:28:17;19.38;;;9.43;;
61471;SDS011;47337;54.068;12.114;2023-02-07T11:30:46;19.25;;;9.95;;
61471;SDS011;47337;54.068;12.114;2023-02-07T11:33:24;21.00;;;9.85;;
61471;SDS011;47337;54.068;12.114;2023-02-07T11:36:02;20.80;;;9.18;;
61471;SDS011;47337;54.068;12.114;2023-02-07T11:38:49;20.20;;;10.05;;
61471;SDS011;47337;54.068;12.114;2023-02-07T11:41:26;17.00;;;8.35;;
61471;SDS011;47337;54.068;12.114;2023-02-07T11:44:00;18.60;;;10.00;;
61471;SDS011;47337;54.068;12.114;2023-02-07T11:46:41;18.67;;;10.23;;
61471;SDS011;47337;54.068;12.114;2023-02-07T11:52:14;18.42;;;10.50;;
61471;SDS011;47337;54.068;12.114;2023-02-07T11:54:47;19.98;;;9.57;;
61471;SDS011;47337;54.068;12.114;2023-02-07T11:57:19;19.02;;;10.73;;
61471;SDS011;47337;54.068;12.114;2023-02-07T12:00:15;18.38;;;9.43;;
61471;SDS011;47337;54.068;12.114;2023-02-07T12:02:32;18.58;;;9.68;;
61471;SDS011;47337;54.068;12.114;2023-02-07T12:08:09;18.98;;;9.15;;
61471;SDS011;47337;54.068;12.114;2023-02-07T12:10:45;18.00;;;9.20;;
61471;SDS011;47337;54.068;12.114;2023-02-07T12:13:17;20.27;;;9.75;;
61471;SDS011;47337;54.068;12.114;2023-02-07T12:18:30;15.48;;;8.52;;
61471;SDS011;47337;54.068;12.114;2023-02-07T12:21:08;15.73;;;8.15;;
61471;SDS011;47337;54.068;12.114;2023-02-07T12:23:45;16.45;;;8.85;;
61471;SDS011;47337;54.068;12.114;2023-02-07T12:26:39;16.85;;;8.65;;
61471;SDS011;47337;54.068;12.114;2023-02-07T12:34:29;16.45;;;8.32;;
61471;SDS011;47337;54.068;12.114;2023-02-07T12:40:13;15.60;;;8.00;;
61471;SDS011;47337;54.068;12.114;2023-02-07T12:42:55;16.08;;;8.43;;
61471;SDS011;47337;54.068;12.114;2023-02-07T13:01:02;33.90;;;16.13;;
61471;SDS011;47337;54.068;12.114;2023-02-07T13:09:09;18.75;;;9.82;;
61471;SDS011;47337;54.068;12.114;2023-02-07T13:17:21;17.42;;;8.52;;
61471;SDS011;47337;54.068;12.114;2023-02-07T13:19:59;17.05;;;9.32;;
61471;SDS011;47337;54.068;12.114;2023-02-07T13:22:42;19.00;;;8.98;;
61471;SDS011;47337;54.068;12.114;2023-02-07T13:25:33;19.42;;;9.48;;
61471;SDS011;47337;54.068;12.114;2023-02-07T13:28:06;13.55;;;7.95;;
61471;SDS011;47337;54.068;12.114;2023-02-07T13:30:50;16.42;;;8.98;;
61471;SDS011;47337;54.068;12.114;2023-02-07T13:36:01;17.08;;;8.80;;
61471;SDS011;47337;54.068;12.114;2023-02-07T13:41:30;15.95;;;8.38;;
61471;SDS011;47337;54.068;12.114;2023-02-07T14:00:57;15.13;;;7.85;;
61471;SDS011;47337;54.068;12.114;2023-02-07T14:03:30;12.05;;;7.47;;
61471;SDS011;47337;54.068;12.114;2023-02-07T14:08:39;14.90;;;8.18;;
61471;SDS011;47337;54.068;12.114;2023-02-07T14:14:10;13.70;;;7.78;;
61471;SDS011;47337;54.068;12.114;2023-02-07T14:16:45;12.85;;;7.40;;
61471;SDS011;47337;54.068;12.114;2023-02-07T14:19:45;18.02;;;9.52;;
61471;SDS011;47337;54.068;12.114;2023-02-07T14:32:41;15.48;;;8.48;;
61471;SDS011;47337;54.068;12.114;2023-02-07T14:35:28;20.70;;;8.70;;
61471;SDS011;47337;54.068;12.114;2023-02-07T14:38:00;17.55;;;8.88;;
61471;SDS011;47337;54.068;12.114;2023-02-07T14:45:30;14.38;;;8.07;;
61471;SDS011;47337;54.068;12.114;2023-02-07T14:47:58;13.57;;;7.75;;
61471;SDS011;47337;54.068;12.114;2023-02-07T14:50:28;17.15;;;9.02;;
61471;SDS011;47337;54.068;12.114;2023-02-07T14:52:57;17.90;;;8.88;;
61471;SDS011;47337;54.068;12.114;2023-02-07T14:58:41;16.35;;;8.07;;
61471;SDS011;47337;54.068;12.114;2023-02-07T15:01:12;16.95;;;9.50;;
61471;SDS011;47337;54.068;12.114;2023-02-07T15:03:41;17.13;;;8.93;;
61471;SDS011;47337;54.068;12.114;2023-02-07T15:06:17;13.20;;;8.15;;
61471;SDS011;47337;54.068;12.114;2023-02-07T15:08:53;12.23;;;6.28;;
61471;SDS011;47337;54.068;12.114;2023-02-07T15:11:21;11.70;;;5.38;;
61471;SDS011;47337;54.068;12.114;2023-02-07T15:13:49;10.55;;;5.50;;
61471;SDS011;47337;54.068;12.114;2023-02-07T15:16:15;8.93;;;5.25;;
61471;SDS011;47337;54.068;12.114;2023-02-07T15:18:45;9.75;;;4.55;;
61471;SDS011;47337;54.068;12.114;2023-02-07T15:21:16;9.90;;;4.53;;
61471;SDS011;47337;54.068;12.114;2023-02-07T15:23:48;6.90;;;3.85;;
61471;SDS011;47337;54.068;12.114;2023-02-07T15:26:19;7.00;;;3.90;;
61471;SDS011;47337;54.068;12.114;2023-02-07T15:28:44;7.72;;;4.45;;
61471;SDS011;47337;54.068;12.114;2023-02-07T15:31:20;7.35;;;3.55;;
61471;SDS011;47337;54.068;12.114;2023-02-07T15:36:24;11.63;;;4.45;;
61471;SDS011;47337;54.068;12.114;2023-02-07T15:38:52;6.57;;;3.65;;
61471;SDS011;47337;54.068;12.114;2023-02-07T15:41:19;7.20;;;4.50;;
61471;SDS011;47337;54.068;12.114;2023-02-07T15:46:25;8.85;;;3.92;;
61471;SDS011;47337;54.068;12.114;2023-02-07T15:48:52;7.60;;;4.18;;
61471;SDS011;47337;54.068;12.114;2023-02-07T15:51:26;9.73;;;4.85;;
61471;SDS011;47337;54.068;12.114;2023-02-07T15:53:55;9.05;;;5.32;;
61471;SDS011;47337;54.068;12.114;2023-02-07T15:56:22;8.02;;;4.68;;
61471;SDS011;47337;54.068;12.114;2023-02-07T15:58:49;9.40;;;4.80;;
61471;SDS011;47337;54.068;12.114;2023-02-07T16:01:22;11.07;;;5.05;;
61471;SDS011;47337;54.068;12.114;2023-02-07T16:03:49;11.85;;;5.65;;
61471;SDS011;47337;54.068;12.114;2023-02-07T16:08:45;10.43;;;5.30;;
61471;SDS011;47337;54.068;12.114;2023-02-07T16:16:27;13.52;;;6.32;;
61471;SDS011;47337;54.068;12.114;2023-02-07T16:21:29;14.00;;;6.72;;
61471;SDS011;47337;54.068;12.114;2023-02-07T16:24:13;13.63;;;7.07;;
61471;SDS011;47337;54.068;12.114;2023-02-07T16:26:41;13.40;;;6.80;;
61471;SDS011;47337;54.068;12.114;2023-02-07T16:29:17;11.10;;;6.40;;
61471;SDS011;47337;54.068;12.114;2023-02-07T16:31:44;13.45;;;6.88;;
61471;SDS011;47337;54.068;12.114;2023-02-07T16:34:13;15.90;;;7.05;;
61471;SDS011;47337;54.068;12.114;2023-02-07T16:36:41;14.73;;;7.28;;
61471;SDS011;47337;54.068;12.114;2023-02-07T16:39:07;14.48;;;7.05;;
61471;SDS011;47337;54.068;12.114;2023-02-07T16:41:33;13.30;;;6.35;;
61471;SDS011;47337;54.068;12.114;2023-02-07T16:44:01;13.57;;;6.85;;
61471;SDS011;47337;54.068;12.114;2023-02-07T16:46:31;13.98;;;6.95;;
61471;SDS011;47337;54.068;12.114;2023-02-07T16:48:58;15.15;;;7.40;;
61471;SDS011;47337;54.068;12.114;2023-02-07T16:51:23;15.88;;;7.00;;
61471;SDS011;47337;54.068;12.114;2023-02-07T16:53:51;15.38;;;8.55;;
61471;SDS011;47337;54.068;12.114;2023-02-07T16:56:25;19.23;;;10.05;;
61471;SDS011;47337;54.068;12.114;2023-02-07T16:58:54;20.45;;;10.57;;
61471;SDS011;47337;54.068;12.114;2023-02-07T17:01:22;19.70;;;9.27;;
61471;SDS011;47337;54.068;12.114;2023-02-07T17:03:47;18.13;;;9.32;;
61471;SDS011;47337;54.068;12.114;2023-02-07T17:06:13;16.70;;;8.23;;
61471;SDS011;47337;54.068;12.114;2023-02-07T17:08:43;17.70;;;8.48;;
61471;SDS011;47337;54.068;12.114;2023-02-07T17:11:12;15.68;;;8.45;;
61471;SDS011;47337;54.068;12.114;2023-02-07T17:13:48;16.90;;;8.77;;
61471;SDS011;47337;54.068;12.114;2023-02-07T17:16:14;16.40;;;8.60;;
61471;SDS011;47337;54.068;12.114;2023-02-07T17:18:40;14.70;;;8.38;;
61471;SDS011;47337;54.068;12.114;2023-02-07T17:21:06;19.55;;;9.02;;
61471;SDS011;47337;54.068;12.114;2023-02-07T17:23:33;17.70;;;8.77;;
61471;SDS011;47337;54.068;12.114;2023-02-07T17:25:59;16.92;;;8.93;;
61471;SDS011;47337;54.068;12.114;2023-02-07T17:28:24;21.00;;;9.48;;
61471;SDS011;47337;54.068;12.114;2023-02-07T17:30:50;19.17;;;9.30;;
61471;SDS011;47337;54.068;12.114;2023-02-07T17:33:15;19.42;;;8.50;;